sensor_id;sensor_type;location;lat;lon;timestamp;pressure;altitude;pressure_sealevel;temperature;humidity
12785;BME280;6456;42.680;23.260;2023-04-30T00:00:36;94324.50;;;11.90;92.97
12785;BME280;6456;42.680;23.260;2023-04-30T00:03:03;94257.91;;;11.41;93.53
12785;BME280;6456;42.680;23.260;2023-04-30T00:05:31;94263.50;;;11.45;94.29
12785;BME280;6456;42.680;23.260;2023-04-30T00:07:58;94348.78;;;11.92;97.06
12785;BME280;6456;42.680;23.260;2023-04-30T00:10:26;94345.91;;;11.82;98.21
12785;BME280;6456;42.680;23.260;2023-04-30T00:12:53;94270.47;;;11.28;98.06
12785;BME280;6456;42.680;23.260;2023-04-30T00:15:21;94298.88;;;11.37;98.56
12785;BME280;6456;42.680;23.260;2023-04-30T00:17:48;94326.56;;;11.58;98.89
12785;BME280;6456;42.680;23.260;2023-04-30T00:20:15;94199.44;;;10.80;98.80
12785;BME280;6456;42.680;23.260;2023-04-30T00:22:42;94271.56;;;11.20;99.92
12785;BME280;6456;42.680;23.260;2023-04-30T00:25:09;94351.94;;;11.71;100.00
12785;BME280;6456;42.680;23.260;2023-04-30T00:27:38;94321.47;;;11.45;100.00
12785;BME280;6456;42.680;23.260;2023-04-30T00:30:06;94321.47;;;11.45;100.00
12785;BME280;6456;42.680;23.260;2023-04-30T00:32:33;94340.41;;;11.53;99.20
12785;BME280;6456;42.680;23.260;2023-04-30T00:35:02;94273.63;;;11.07;97.86
12785;BME280;6456;42.680;23.260;2023-04-30T00:37:29;94344.66;;;11.54;97.72
12785;BME280;6456;42.680;23.260;2023-04-30T00:39:57;94349.34;;;11.52;97.96
12785;BME280;6456;42.680;23.260;2023-04-30T00:42:23;94271.53;;;10.97;97.88
12785;BME280;6456;42.680;23.260;2023-04-30T00:44:52;94249.38;;;10.86;98.26
12785;BME280;6456;42.680;23.260;2023-04-30T00:47:19;94250.94;;;10.76;97.53
12785;BME280;6456;42.680;23.260;2023-04-30T00:49:46;94337.81;;;11.35;97.86
12785;BME280;6456;42.680;23.260;2023-04-30T00:52:13;94342.25;;;11.23;96.95
12785;BME280;6456;42.680;23.260;2023-04-30T00:54:42;94262.19;;;10.65;96.78
12785;BME280;6456;42.680;23.260;2023-04-30T00:57:11;94223.34;;;10.49;97.23
12785;BME280;6456;42.680;23.260;2023-04-30T00:59:38;94338.19;;;11.09;97.92
12785;BME280;6456;42.680;23.260;2023-04-30T01:02:06;94267.47;;;10.65;97.32
12785;BME280;6456;42.680;23.260;2023-04-30T01:04:34;94282.00;;;10.67;97.17
12785;BME280;6456;42.680;23.260;2023-04-30T01:07:01;94248.63;;;10.50;97.68
12785;BME280;6456;42.680;23.260;2023-04-30T01:09:28;94281.78;;;10.69;98.22
12785;BME280;6456;42.680;23.260;2023-04-30T01:12:01;94321.25;;;10.87;97.06
12785;BME280;6456;42.680;23.260;2023-04-30T01:14:38;94264.91;;;10.40;97.31
12785;BME280;6456;42.680;23.260;2023-04-30T01:17:15;94253.97;;;10.25;96.59
12785;BME280;6456;42.680;23.260;2023-04-30T01:19:44;94180.69;;;9.92;96.61
12785;BME280;6456;42.680;23.260;2023-04-30T01:22:24;94338.88;;;10.86;96.90
12785;BME280;6456;42.680;23.260;2023-04-30T01:25:18;94334.84;;;10.84;97.53
12785;BME280;6456;42.680;23.260;2023-04-30T01:28:01;94311.59;;;10.63;98.07
12785;BME280;6456;42.680;23.260;2023-04-30T01:30:30;94334.28;;;10.64;99.66
12785;BME280;6456;42.680;23.260;2023-04-30T01:32:57;94332.94;;;10.55;100.00
12785;BME280;6456;42.680;23.260;2023-04-30T01:35:40;94312.69;;;10.37;100.00
12785;BME280;6456;42.680;23.260;2023-04-30T01:38:18;94309.13;;;10.32;100.00
12785;BME280;6456;42.680;23.260;2023-04-30T01:40:50;94333.44;;;10.45;100.00
12785;BME280;6456;42.680;23.260;2023-04-30T01:43:28;94333.97;;;10.54;100.00
12785;BME280;6456;42.680;23.260;2023-04-30T01:46:04;94255.31;;;9.91;100.00
12785;BME280;6456;42.680;23.260;2023-04-30T01:48:41;94335.88;;;10.47;100.00
12785;BME280;6456;42.680;23.260;2023-04-30T01:51:15;94191.91;;;9.63;100.00
12785;BME280;6456;42.680;23.260;2023-04-30T01:53:45;94207.81;;;9.68;100.00
12785;BME280;6456;42.680;23.260;2023-04-30T01:56:17;94305.69;;;10.31;100.00
12785;BME280;6456;42.680;23.260;2023-04-30T01:58:50;94243.69;;;9.99;100.00
12785;BME280;6456;42.680;23.260;2023-04-30T02:01:26;94313.06;;;10.41;100.00
12785;BME280;6456;42.680;23.260;2023-04-30T02:03:53;94287.22;;;10.19;100.00
12785;BME280;6456;42.680;23.260;2023-04-30T02:06:20;94319.56;;;10.38;100.00
12785;BME280;6456;42.680;23.260;2023-04-30T02:08:47;94268.91;;;10.06;100.00
12785;BME280;6456;42.680;23.260;2023-04-30T02:11:14;94255.06;;;9.93;100.00
12785;BME280;6456;42.680;23.260;2023-04-30T02:13:40;94222.06;;;9.79;100.00
12785;BME280;6456;42.680;23.260;2023-04-30T02:16:09;94243.75;;;9.92;100.00
12785;BME280;6456;42.680;23.260;2023-04-30T02:18:36;94245.91;;;10.02;100.00
12785;BME280;6456;42.680;23.260;2023-04-30T02:21:03;94232.97;;;10.00;100.00
12785;BME280;6456;42.680;23.260;2023-04-30T02:23:30;94341.28;;;10.70;99.89
12785;BME280;6456;42.680;23.260;2023-04-30T02:25:57;94340.84;;;10.73;99.61
12785;BME280;6456;42.680;23.260;2023-04-30T02:28:24;94320.31;;;10.63;99.83
12785;BME280;6456;42.680;23.260;2023-04-30T02:30:51;94262.22;;;10.28;99.87
12785;BME280;6456;42.680;23.260;2023-04-30T02:33:19;94316.06;;;10.62;99.62
12785;BME280;6456;42.680;23.260;2023-04-30T02:35:47;94255.81;;;10.24;98.90
12785;BME280;6456;42.680;23.260;2023-04-30T02:38:15;94281.06;;;10.44;100.00
12785;BME280;6456;42.680;23.260;2023-04-30T02:40:42;94248.13;;;10.23;100.00
12785;BME280;6456;42.680;23.260;2023-04-30T02:43:08;94256.09;;;10.16;100.00
12785;BME280;6456;42.680;23.260;2023-04-30T02:45:35;94319.00;;;10.54;100.00
12785;BME280;6456;42.680;23.260;2023-04-30T02:48:02;94239.75;;;10.08;100.00
12785;BME280;6456;42.680;23.260;2023-04-30T02:50:31;94287.19;;;10.38;100.00
12785;BME280;6456;42.680;23.260;2023-04-30T02:52:58;94285.16;;;10.40;100.00
12785;BME280;6456;42.680;23.260;2023-04-30T02:55:25;94347.88;;;10.79;100.00
12785;BME280;6456;42.680;23.260;2023-04-30T02:57:52;94228.09;;;10.04;100.00
12785;BME280;6456;42.680;23.260;2023-04-30T03:00:20;94314.75;;;10.53;100.00
12785;BME280;6456;42.680;23.260;2023-04-30T03:02:47;94354.28;;;10.83;100.00
12785;BME280;6456;42.680;23.260;2023-04-30T03:05:14;94364.81;;;10.83;100.00
12785;BME280;6456;42.680;23.260;2023-04-30T03:07:42;94259.22;;;10.25;100.00
12785;BME280;6456;42.680;23.260;2023-04-30T03:10:09;94327.25;;;10.58;100.00
12785;BME280;6456;42.680;23.260;2023-04-30T03:12:36;94310.88;;;10.56;100.00
12785;BME280;6456;42.680;23.260;2023-04-30T03:15:04;94294.38;;;10.49;100.00
12785;BME280;6456;42.680;23.260;2023-04-30T03:17:32;94312.41;;;10.63;100.00
12785;BME280;6456;42.680;23.260;2023-04-30T03:19:59;94263.09;;;10.22;100.00
12785;BME280;6456;42.680;23.260;2023-04-30T03:22:26;94334.56;;;10.74;100.00
12785;BME280;6456;42.680;23.260;2023-04-30T03:24:54;94332.59;;;10.69;100.00
12785;BME280;6456;42.680;23.260;2023-04-30T03:27:21;94329.00;;;10.64;100.00
12785;BME280;6456;42.680;23.260;2023-04-30T03:29:48;94246.25;;;10.12;100.00
12785;BME280;6456;42.680;23.260;2023-04-30T03:32:15;94366.00;;;10.87;100.00
12785;BME280;6456;42.680;23.260;2023-04-30T03:34:42;94352.47;;;10.83;100.00
12785;BME280;6456;42.680;23.260;2023-04-30T03:37:09;94340.84;;;10.73;100.00
12785;BME280;6456;42.680;23.260;2023-04-30T03:39:38;94375.34;;;11.01;100.00
12785;BME280;6456;42.680;23.260;2023-04-30T03:42:09;94317.31;;;10.60;100.00
12785;BME280;6456;42.680;23.260;2023-04-30T03:44:36;94352.69;;;10.82;100.00
12785;BME280;6456;42.680;23.260;2023-04-30T03:47:03;94383.38;;;11.06;100.00
12785;BME280;6456;42.680;23.260;2023-04-30T03:49:30;94356.06;;;10.89;100.00
12785;BME280;6456;42.680;23.260;2023-04-30T03:51:57;94266.59;;;10.35;100.00
12785;BME280;6456;42.680;23.260;2023-04-30T03:54:24;94383.63;;;11.05;100.00
12785;BME280;6456;42.680;23.260;2023-04-30T03:56:51;94307.97;;;10.64;100.00
12785;BME280;6456;42.680;23.260;2023-04-30T03:59:19;94293.56;;;10.48;100.00
12785;BME280;6456;42.680;23.260;2023-04-30T04:01:46;94301.50;;;10.60;100.00
12785;BME280;6456;42.680;23.260;2023-04-30T04:04:13;94326.53;;;10.69;100.00
12785;BME280;6456;42.680;23.260;2023-04-30T04:06:40;94398.81;;;11.21;100.00
12785;BME280;6456;42.680;23.260;2023-04-30T04:09:07;94403.63;;;11.24;100.00
12785;BME280;6456;42.680;23.260;2023-04-30T04:11:33;94401.81;;;11.24;100.00
12785;BME280;6456;42.680;23.260;2023-04-30T04:14:00;94401.97;;;11.11;100.00
12785;BME280;6456;42.680;23.260;2023-04-30T04:16:29;94310.34;;;10.47;100.00
12785;BME280;6456;42.680;23.260;2023-04-30T04:18:56;94348.53;;;10.74;100.00
12785;BME280;6456;42.680;23.260;2023-04-30T04:21:22;94380.59;;;10.83;100.00
12785;BME280;6456;42.680;23.260;2023-04-30T04:23:49;94375.03;;;10.73;100.00
12785;BME280;6456;42.680;23.260;2023-04-30T04:26:16;94313.84;;;10.23;100.00
12785;BME280;6456;42.680;23.260;2023-04-30T04:28:46;94408.69;;;10.89;100.00
12785;BME280;6456;42.680;23.260;2023-04-30T04:31:13;94362.69;;;10.55;100.00
12785;BME280;6456;42.680;23.260;2023-04-30T04:33:41;94420.22;;;10.88;100.00
12785;BME280;6456;42.680;23.260;2023-04-30T04:36:08;94411.75;;;10.86;100.00
12785;BME280;6456;42.680;23.260;2023-04-30T04:38:35;94419.72;;;10.98;100.00
12785;BME280;6456;42.680;23.260;2023-04-30T04:41:01;94344.94;;;10.51;100.00
12785;BME280;6456;42.680;23.260;2023-04-30T04:43:28;94419.44;;;11.06;100.00
12785;BME280;6456;42.680;23.260;2023-04-30T04:45:55;94417.31;;;11.14;99.85
12785;BME280;6456;42.680;23.260;2023-04-30T04:48:22;94327.38;;;10.63;99.14
12785;BME280;6456;42.680;23.260;2023-04-30T04:50:52;94423.72;;;11.36;99.04
12785;BME280;6456;42.680;23.260;2023-04-30T04:53:19;94361.88;;;11.09;98.36
12785;BME280;6456;42.680;23.260;2023-04-30T04:55:46;94356.81;;;11.08;97.99
12785;BME280;6456;42.680;23.260;2023-04-30T04:58:12;94417.63;;;11.54;98.07
12785;BME280;6456;42.680;23.260;2023-04-30T05:00:39;94355.84;;;11.20;96.76
12785;BME280;6456;42.680;23.260;2023-04-30T05:03:06;94414.09;;;11.60;96.87
12785;BME280;6456;42.680;23.260;2023-04-30T05:05:34;94423.22;;;11.76;96.19
12785;BME280;6456;42.680;23.260;2023-04-30T05:08:02;94384.31;;;11.59;96.43
12785;BME280;6456;42.680;23.260;2023-04-30T05:10:29;94424.94;;;12.00;96.75
12785;BME280;6456;42.680;23.260;2023-04-30T05:12:56;94429.03;;;11.96;97.08
12785;BME280;6456;42.680;23.260;2023-04-30T05:15:23;94424.69;;;11.90;95.77
12785;BME280;6456;42.680;23.260;2023-04-30T05:17:51;94425.81;;;11.64;95.75
12785;BME280;6456;42.680;23.260;2023-04-30T05:20:18;94429.09;;;11.78;98.14
12785;BME280;6456;42.680;23.260;2023-04-30T05:22:45;94377.03;;;11.43;100.00
12785;BME280;6456;42.680;23.260;2023-04-30T05:25:13;94419.72;;;11.64;99.57
12785;BME280;6456;42.680;23.260;2023-04-30T05:27:40;94442.25;;;11.78;100.00
12785;BME280;6456;42.680;23.260;2023-04-30T05:30:07;94423.69;;;11.73;100.00
12785;BME280;6456;42.680;23.260;2023-04-30T05:32:34;94423.38;;;11.81;100.00
12785;BME280;6456;42.680;23.260;2023-04-30T05:35:01;94355.19;;;11.54;99.78
12785;BME280;6456;42.680;23.260;2023-04-30T05:37:28;94402.34;;;11.92;97.15
12785;BME280;6456;42.680;23.260;2023-04-30T05:39:55;94421.25;;;12.01;95.22
12785;BME280;6456;42.680;23.260;2023-04-30T05:42:23;94435.97;;;12.20;94.67
12785;BME280;6456;42.680;23.260;2023-04-30T05:44:50;94425.41;;;12.20;94.05
12785;BME280;6456;42.680;23.260;2023-04-30T05:47:17;94377.00;;;12.03;93.42
12785;BME280;6456;42.680;23.260;2023-04-30T05:49:44;94292.13;;;11.71;91.81
12785;BME280;6456;42.680;23.260;2023-04-30T05:52:11;94433.94;;;12.68;91.24
12785;BME280;6456;42.680;23.260;2023-04-30T05:54:39;94437.88;;;12.89;89.39
12785;BME280;6456;42.680;23.260;2023-04-30T05:57:06;94349.75;;;12.32;88.77
12785;BME280;6456;42.680;23.260;2023-04-30T05:59:34;94444.06;;;13.06;88.00
12785;BME280;6456;42.680;23.260;2023-04-30T06:02:01;94453.13;;;13.22;86.69
12785;BME280;6456;42.680;23.260;2023-04-30T06:04:28;94451.84;;;13.36;86.42
12785;BME280;6456;42.680;23.260;2023-04-30T06:06:55;94444.56;;;13.43;86.28
12785;BME280;6456;42.680;23.260;2023-04-30T06:09:22;94445.63;;;13.42;86.34
12785;BME280;6456;42.680;23.260;2023-04-30T06:11:49;94452.13;;;13.63;85.40
12785;BME280;6456;42.680;23.260;2023-04-30T06:14:16;94455.19;;;13.71;84.76
12785;BME280;6456;42.680;23.260;2023-04-30T06:16:45;94370.06;;;13.29;84.06
12785;BME280;6456;42.680;23.260;2023-04-30T06:19:12;94333.28;;;13.28;83.19
12785;BME280;6456;42.680;23.260;2023-04-30T06:21:38;94456.13;;;14.22;82.63
12785;BME280;6456;42.680;23.260;2023-04-30T06:24:07;94458.72;;;14.33;82.18
12785;BME280;6456;42.680;23.260;2023-04-30T06:26:35;94456.75;;;14.29;82.33
12785;BME280;6456;42.680;23.260;2023-04-30T06:29:02;94434.13;;;14.21;82.99
12785;BME280;6456;42.680;23.260;2023-04-30T06:31:29;94464.13;;;14.10;83.38
12785;BME280;6456;42.680;23.260;2023-04-30T06:33:57;94466.34;;;14.01;83.92
12785;BME280;6456;42.680;23.260;2023-04-30T06:36:24;94411.41;;;13.24;85.63
12785;BME280;6456;42.680;23.260;2023-04-30T06:38:51;94418.44;;;13.18;87.52
12785;BME280;6456;42.680;23.260;2023-04-30T06:41:17;94381.81;;;12.99;89.09
12785;BME280;6456;42.680;23.260;2023-04-30T06:43:45;94450.75;;;13.60;89.94
12785;BME280;6456;42.680;23.260;2023-04-30T06:46:11;94461.28;;;13.72;87.70
12785;BME280;6456;42.680;23.260;2023-04-30T06:48:39;94396.31;;;13.47;88.06
12785;BME280;6456;42.680;23.260;2023-04-30T06:51:07;94461.03;;;14.01;87.65
12785;BME280;6456;42.680;23.260;2023-04-30T06:53:34;94417.88;;;13.84;86.71
12785;BME280;6456;42.680;23.260;2023-04-30T06:56:01;94455.72;;;14.30;84.23
12785;BME280;6456;42.680;23.260;2023-04-30T06:58:28;94406.94;;;14.26;83.61
12785;BME280;6456;42.680;23.260;2023-04-30T07:00:55;94460.81;;;14.98;83.39
12785;BME280;6456;42.680;23.260;2023-04-30T07:03:22;94415.41;;;14.72;82.54
12785;BME280;6456;42.680;23.260;2023-04-30T07:05:49;94473.38;;;15.24;80.69
12785;BME280;6456;42.680;23.260;2023-04-30T07:08:20;94465.38;;;15.40;80.30
12785;BME280;6456;42.680;23.260;2023-04-30T07:10:47;94465.16;;;15.64;79.47
12785;BME280;6456;42.680;23.260;2023-04-30T07:13:15;94457.25;;;15.90;78.44
12785;BME280;6456;42.680;23.260;2023-04-30T07:15:41;94470.50;;;16.12;78.46
12785;BME280;6456;42.680;23.260;2023-04-30T07:18:08;94464.25;;;16.23;77.40
12785;BME280;6456;42.680;23.260;2023-04-30T07:20:35;94467.72;;;16.29;75.46
12785;BME280;6456;42.680;23.260;2023-04-30T07:23:02;94465.94;;;16.34;74.77
12785;BME280;6456;42.680;23.260;2023-04-30T07:25:30;94462.78;;;16.37;73.28
12785;BME280;6456;42.680;23.260;2023-04-30T07:27:57;94462.78;;;16.37;72.46
12785;BME280;6456;42.680;23.260;2023-04-30T07:30:24;94463.53;;;16.33;73.18
12785;BME280;6456;42.680;23.260;2023-04-30T07:32:51;94471.50;;;16.33;72.21
12785;BME280;6456;42.680;23.260;2023-04-30T07:35:18;94457.13;;;16.02;74.04
12785;BME280;6456;42.680;23.260;2023-04-30T07:37:44;94463.94;;;15.93;74.24
12785;BME280;6456;42.680;23.260;2023-04-30T07:40:12;94473.47;;;15.94;73.73
12785;BME280;6456;42.680;23.260;2023-04-30T07:42:40;94397.22;;;15.58;72.41
12785;BME280;6456;42.680;23.260;2023-04-30T07:45:08;94462.78;;;16.11;72.67
12785;BME280;6456;42.680;23.260;2023-04-30T07:47:35;94483.28;;;16.15;71.54
12785;BME280;6456;42.680;23.260;2023-04-30T07:50:02;94480.63;;;16.15;70.00
12785;BME280;6456;42.680;23.260;2023-04-30T07:52:29;94431.16;;;15.82;69.19
12785;BME280;6456;42.680;23.260;2023-04-30T07:54:55;94419.97;;;16.02;70.34
12785;BME280;6456;42.680;23.260;2023-04-30T07:57:22;94414.16;;;16.05;68.88
12785;BME280;6456;42.680;23.260;2023-04-30T07:59:52;94475.66;;;16.50;67.87
12785;BME280;6456;42.680;23.260;2023-04-30T08:02:19;94474.16;;;16.59;67.95
12785;BME280;6456;42.680;23.260;2023-04-30T08:04:45;94472.19;;;16.50;66.09
12785;BME280;6456;42.680;23.260;2023-04-30T08:07:13;94414.25;;;16.15;66.98
12785;BME280;6456;42.680;23.260;2023-04-30T08:09:40;94487.97;;;16.61;66.16
12785;BME280;6456;42.680;23.260;2023-04-30T08:12:07;94382.72;;;15.92;64.24
12785;BME280;6456;42.680;23.260;2023-04-30T08:14:34;94472.41;;;16.48;65.23
12785;BME280;6456;42.680;23.260;2023-04-30T08:17:02;94472.81;;;16.57;64.89
12785;BME280;6456;42.680;23.260;2023-04-30T08:19:29;94416.38;;;16.13;65.33
12785;BME280;6456;42.680;23.260;2023-04-30T08:21:57;94487.53;;;16.70;65.37
12785;BME280;6456;42.680;23.260;2023-04-30T08:24:25;94486.25;;;16.77;62.33
12785;BME280;6456;42.680;23.260;2023-04-30T08:26:52;94496.16;;;16.87;62.03
12785;BME280;6456;42.680;23.260;2023-04-30T08:29:19;94484.00;;;16.91;62.60
12785;BME280;6456;42.680;23.260;2023-04-30T08:31:45;94463.84;;;17.00;62.78
12785;BME280;6456;42.680;23.260;2023-04-30T08:34:14;94484.81;;;17.33;61.64
12785;BME280;6456;42.680;23.260;2023-04-30T08:36:41;94472.50;;;17.22;59.34
12785;BME280;6456;42.680;23.260;2023-04-30T08:39:08;94478.94;;;17.36;60.76
12785;BME280;6456;42.680;23.260;2023-04-30T08:41:35;94487.66;;;17.63;59.38
12785;BME280;6456;42.680;23.260;2023-04-30T08:44:02;94399.69;;;17.28;56.35
12785;BME280;6456;42.680;23.260;2023-04-30T08:46:31;94480.06;;;17.97;56.49
12785;BME280;6456;42.680;23.260;2023-04-30T08:48:59;94470.22;;;17.92;58.29
12785;BME280;6456;42.680;23.260;2023-04-30T08:51:29;94414.66;;;17.49;54.06
12785;BME280;6456;42.680;23.260;2023-04-30T08:53:57;94472.78;;;17.72;55.24
12785;BME280;6456;42.680;23.260;2023-04-30T08:56:24;94454.06;;;17.52;55.83
12785;BME280;6456;42.680;23.260;2023-04-30T08:58:51;94460.81;;;17.70;57.00
12785;BME280;6456;42.680;23.260;2023-04-30T09:01:18;94463.56;;;17.90;56.08
12785;BME280;6456;42.680;23.260;2023-04-30T09:03:45;94325.72;;;17.20;55.55
12785;BME280;6456;42.680;23.260;2023-04-30T09:06:15;94433.25;;;18.11;52.83
12785;BME280;6456;42.680;23.260;2023-04-30T09:08:44;94436.50;;;18.33;50.88
12785;BME280;6456;42.680;23.260;2023-04-30T09:11:22;94444.28;;;18.55;52.56
12785;BME280;6456;42.680;23.260;2023-04-30T09:13:50;94430.94;;;18.55;50.86
12785;BME280;6456;42.680;23.260;2023-04-30T09:16:18;94374.69;;;18.26;51.50
12785;BME280;6456;42.680;23.260;2023-04-30T09:18:45;94428.00;;;18.72;51.42
12785;BME280;6456;42.680;23.260;2023-04-30T09:21:13;94375.81;;;18.55;50.88
12785;BME280;6456;42.680;23.260;2023-04-30T09:23:59;94424.28;;;18.83;49.51
12785;BME280;6456;42.680;23.260;2023-04-30T09:26:29;94346.47;;;18.40;50.53
12785;BME280;6456;42.680;23.260;2023-04-30T09:28:57;94427.94;;;19.37;51.78
12785;BME280;6456;42.680;23.260;2023-04-30T09:31:24;94385.25;;;19.42;48.79
12785;BME280;6456;42.680;23.260;2023-04-30T09:33:52;94371.34;;;19.50;51.11
12785;BME280;6456;42.680;23.260;2023-04-30T09:36:19;94354.00;;;19.53;48.26
12785;BME280;6456;42.680;23.260;2023-04-30T09:38:46;94390.94;;;19.84;48.35
12785;BME280;6456;42.680;23.260;2023-04-30T09:41:25;94390.19;;;19.74;49.36
12785;BME280;6456;42.680;23.260;2023-04-30T09:43:52;94423.31;;;19.68;48.80
12785;BME280;6456;42.680;23.260;2023-04-30T09:46:20;94407.34;;;19.58;47.17
12785;BME280;6456;42.680;23.260;2023-04-30T09:48:55;94343.81;;;18.76;46.98
12785;BME280;6456;42.680;23.260;2023-04-30T09:51:22;94405.91;;;18.91;51.07
12785;BME280;6456;42.680;23.260;2023-04-30T09:53:49;94396.28;;;18.95;51.04
12785;BME280;6456;42.680;23.260;2023-04-30T09:56:19;94402.66;;;18.94;48.50
12785;BME280;6456;42.680;23.260;2023-04-30T09:58:50;94394.16;;;18.92;49.03
12785;BME280;6456;42.680;23.260;2023-04-30T10:01:19;94344.31;;;18.83;50.11
12785;BME280;6456;42.680;23.260;2023-04-30T10:03:46;94378.63;;;19.19;48.55
12785;BME280;6456;42.680;23.260;2023-04-30T10:06:14;94381.50;;;19.43;47.06
12785;BME280;6456;42.680;23.260;2023-04-30T10:08:46;94342.38;;;19.13;47.74
12785;BME280;6456;42.680;23.260;2023-04-30T10:11:20;94328.81;;;19.00;47.78
12785;BME280;6456;42.680;23.260;2023-04-30T10:13:54;94343.44;;;19.12;50.23
12785;BME280;6456;42.680;23.260;2023-04-30T10:16:29;94282.25;;;18.67;46.53
12785;BME280;6456;42.680;23.260;2023-04-30T10:19:04;94326.50;;;18.58;47.63
12785;BME280;6456;42.680;23.260;2023-04-30T10:21:33;94360.75;;;17.69;53.80
12785;BME280;6456;42.680;23.260;2023-04-30T10:24:00;94507.41;;;17.77;59.36
12785;BME280;6456;42.680;23.260;2023-04-30T10:29:56;94435.34;;;15.35;76.58
12785;BME280;6456;42.680;23.260;2023-04-30T10:32:32;94439.72;;;14.69;82.99
12785;BME280;6456;42.680;23.260;2023-04-30T10:35:08;94410.22;;;13.99;87.74
12785;BME280;6456;42.680;23.260;2023-04-30T10:37:46;94420.25;;;14.14;94.72
12785;BME280;6456;42.680;23.260;2023-04-30T10:40:17;94439.50;;;14.38;92.11
12785;BME280;6456;42.680;23.260;2023-04-30T10:42:45;94344.66;;;14.01;90.85
12785;BME280;6456;42.680;23.260;2023-04-30T10:45:16;94377.19;;;14.68;90.49
12785;BME280;6456;42.680;23.260;2023-04-30T10:47:45;94366.41;;;14.92;86.85
12785;BME280;6456;42.680;23.260;2023-04-30T10:50:13;94327.47;;;14.92;85.06
12785;BME280;6456;42.680;23.260;2023-04-30T10:52:40;94332.72;;;15.30;81.99
12785;BME280;6456;42.680;23.260;2023-04-30T10:55:10;94305.41;;;15.30;75.75
12785;BME280;6456;42.680;23.260;2023-04-30T10:57:40;94395.22;;;15.96;70.02
12785;BME280;6456;42.680;23.260;2023-04-30T11:00:23;94331.25;;;15.93;68.26
12785;BME280;6456;42.680;23.260;2023-04-30T11:02:55;94285.16;;;16.04;64.99
12785;BME280;6456;42.680;23.260;2023-04-30T11:05:33;94347.75;;;16.68;64.23
12785;BME280;6456;42.680;23.260;2023-04-30T11:08:00;94344.19;;;16.90;64.00
12785;BME280;6456;42.680;23.260;2023-04-30T11:13:04;94412.69;;;17.86;60.79
12785;BME280;6456;42.680;23.260;2023-04-30T11:15:38;94303.81;;;17.70;61.08
12785;BME280;6456;42.680;23.260;2023-04-30T11:18:09;94360.59;;;18.36;57.59
12785;BME280;6456;42.680;23.260;2023-04-30T11:20:39;94333.94;;;17.96;54.67
12785;BME280;6456;42.680;23.260;2023-04-30T11:23:10;94341.63;;;17.87;52.57
12785;BME280;6456;42.680;23.260;2023-04-30T11:25:40;94345.38;;;17.96;54.93
12785;BME280;6456;42.680;23.260;2023-04-30T11:28:12;94348.81;;;17.91;53.29
12785;BME280;6456;42.680;23.260;2023-04-30T11:30:49;94341.38;;;18.19;51.52
12785;BME280;6456;42.680;23.260;2023-04-30T11:33:19;94312.09;;;18.19;53.14
12785;BME280;6456;42.680;23.260;2023-04-30T11:35:51;94328.66;;;18.56;54.81
12785;BME280;6456;42.680;23.260;2023-04-30T11:38:20;94388.50;;;19.09;49.79
12785;BME280;6456;42.680;23.260;2023-04-30T11:40:53;94271.91;;;17.90;52.14
12785;BME280;6456;42.680;23.260;2023-04-30T11:43:21;94369.63;;;18.45;51.27
12785;BME280;6456;42.680;23.260;2023-04-30T11:46:09;94368.81;;;18.29;49.71
12785;BME280;6456;42.680;23.260;2023-04-30T11:48:43;94309.16;;;17.80;50.76
12785;BME280;6456;42.680;23.260;2023-04-30T11:51:16;94266.56;;;17.65;51.43
12785;BME280;6456;42.680;23.260;2023-04-30T11:53:45;94256.19;;;17.63;55.56
12785;BME280;6456;42.680;23.260;2023-04-30T11:56:14;94308.09;;;17.86;59.41
12785;BME280;6456;42.680;23.260;2023-04-30T11:58:48;94299.34;;;18.11;59.93
12785;BME280;6456;42.680;23.260;2023-04-30T12:01:28;94333.94;;;18.76;57.96
12785;BME280;6456;42.680;23.260;2023-04-30T12:03:55;94292.06;;;18.77;55.04
12785;BME280;6456;42.680;23.260;2023-04-30T12:06:27;94328.00;;;18.99;53.04
12785;BME280;6456;42.680;23.260;2023-04-30T12:08:58;94318.44;;;18.93;54.37
12785;BME280;6456;42.680;23.260;2023-04-30T12:11:28;94377.09;;;18.88;56.74
12785;BME280;6456;42.680;23.260;2023-04-30T12:13:57;94361.94;;;18.53;58.67
12785;BME280;6456;42.680;23.260;2023-04-30T12:16:38;94343.53;;;18.32;58.32
12785;BME280;6456;42.680;23.260;2023-04-30T12:19:05;94371.53;;;18.49;58.50
12785;BME280;6456;42.680;23.260;2023-04-30T12:21:37;94282.78;;;17.63;59.15
12785;BME280;6456;42.680;23.260;2023-04-30T12:24:05;94381.03;;;17.95;61.42
12785;BME280;6456;42.680;23.260;2023-04-30T12:26:39;94416.72;;;18.04;61.98
12785;BME280;6456;42.680;23.260;2023-04-30T12:29:16;94408.66;;;17.79;61.25
12785;BME280;6456;42.680;23.260;2023-04-30T12:31:56;94405.72;;;17.65;62.24
12785;BME280;6456;42.680;23.260;2023-04-30T12:34:25;94406.25;;;17.67;60.70
12785;BME280;6456;42.680;23.260;2023-04-30T12:36:52;94331.81;;;17.10;63.32
12785;BME280;6456;42.680;23.260;2023-04-30T12:39:23;94387.06;;;17.55;64.81
12785;BME280;6456;42.680;23.260;2023-04-30T12:41:50;94415.88;;;17.73;65.17
12785;BME280;6456;42.680;23.260;2023-04-30T12:44:18;94412.16;;;17.89;64.84
12785;BME280;6456;42.680;23.260;2023-04-30T12:46:46;94402.06;;;18.02;63.83
12785;BME280;6456;42.680;23.260;2023-04-30T12:49:23;94408.22;;;18.02;64.15
12785;BME280;6456;42.680;23.260;2023-04-30T12:51:50;94333.06;;;17.65;65.38
12785;BME280;6456;42.680;23.260;2023-04-30T12:54:24;94421.31;;;18.39;64.99
12785;BME280;6456;42.680;23.260;2023-04-30T12:56:59;94419.25;;;18.56;62.91
12785;BME280;6456;42.680;23.260;2023-04-30T12:59:39;94425.91;;;18.84;64.15
12785;BME280;6456;42.680;23.260;2023-04-30T13:02:10;94409.31;;;19.07;63.11
12785;BME280;6456;42.680;23.260;2023-04-30T13:04:39;94376.81;;;19.00;61.21
12785;BME280;6456;42.680;23.260;2023-04-30T13:07:07;94387.66;;;19.34;61.57
12785;BME280;6456;42.680;23.260;2023-04-30T13:09:35;94404.63;;;19.68;61.57
12785;BME280;6456;42.680;23.260;2023-04-30T13:12:02;94392.59;;;19.70;58.66